Time;durP1;ratioP1;P1;durP2;ratioP2;P2;SDS_P1;SDS_P2;PMS_P1;PMS_P2;Temp;Humidity;BMP_temperature;BMP_pressure;BME280_temperature;BME280_humidity;BME280_pressure;Samples;Min_cycle;Max_cycle;Signal;HPM_P1;HPM_P2
2024/02/25 00:01:15;;;;;;;3.08;1.83;;;21.50;35.20;;;;;;5156499;27;20216;-60
2024/02/25 00:03:42;;;;;;;3.08;1.83;;;21.50;35.20;;;;;;5156191;27;20278;-59
2024/02/25 00:06:10;;;;;;;2.70;1.80;;;21.50;35.20;;;;;;5156414;27;20267;-62
2024/02/25 00:08:37;;;;;;;4.10;2.00;;;21.50;35.10;;;;;;5156230;27;20214;-61
2024/02/25 00:11:04;;;;;;;3.40;1.98;;;21.50;35.10;;;;;;5156082;27;20240;-62
2024/02/25 00:13:31;;;;;;;2.50;1.60;;;21.50;35.10;;;;;;5155992;27;20302;-60
2024/02/25 00:15:58;;;;;;;2.35;1.90;;;21.50;35.10;;;;;;5156432;27;20192;-59
2024/02/25 00:18:25;;;;;;;3.95;1.85;;;21.50;35.10;;;;;;5155633;27;20241;-61
2024/02/25 00:20:52;;;;;;;2.88;1.88;;;21.50;35.10;;;;;;5156029;27;20230;-58
2024/02/25 00:23:21;;;;;;;2.47;1.65;;;21.50;35.10;;;;;;5156112;27;20234;-61
2024/02/25 00:25:48;;;;;;;2.80;1.55;;;21.50;35.10;;;;;;5156070;27;20247;-62
2024/02/25 00:28:14;;;;;;;2.83;1.77;;;21.50;35.10;;;;;;5155979;27;20219;-62
2024/02/25 00:30:41;;;;;;;4.90;1.67;;;21.40;35.00;;;;;;5155988;27;20241;-61
2024/02/25 00:33:08;;;;;;;4.07;2.08;;;21.40;35.00;;;;;;5156094;27;20202;-60
2024/02/25 00:35:35;;;;;;;3.55;1.80;;;21.40;35.00;;;;;;5155824;27;20302;-59
2024/02/25 00:38:02;;;;;;;2.67;1.60;;;21.40;35.00;;;;;;5155752;27;20183;-59
2024/02/25 00:40:31;;;;;;;3.88;1.73;;;21.40;35.00;;;;;;5155699;27;20222;-61
2024/02/25 00:42:58;;;;;;;2.83;1.88;;;21.40;35.00;;;;;;5155669;27;20220;-59
2024/02/25 00:45:25;;;;;;;4.82;1.55;;;21.40;35.70;;;;;;5155871;27;20216;-58
2024/02/25 00:47:51;;;;;;;3.10;1.65;;;21.40;35.00;;;;;;5155357;27;20278;-59
2024/02/25 00:50:18;;;;;;;3.42;1.80;;;21.40;35.00;;;;;;5155562;27;20300;-58
2024/02/25 00:52:45;;;;;;;4.97;2.10;;;21.40;35.00;;;;;;5155498;27;20187;-57
2024/02/25 00:55:12;;;;;;;4.43;2.00;;;21.40;35.00;;;;;;5155700;27;20214;-61
2024/02/25 00:57:40;;;;;;;3.65;2.05;;;21.40;35.60;;;;;;5155440;27;20270;-56
2024/02/25 01:00:08;;;;;;;3.38;1.90;;;21.40;34.90;;;;;;5155521;27;20306;-61
2024/02/25 01:02:35;;;;;;;3.75;1.88;;;21.40;35.00;;;;;;5155051;27;20212;-59
2024/02/25 01:05:02;;;;;;;3.33;1.85;;;21.40;35.00;;;;;;5155256;27;20214;-61
2024/02/25 01:07:29;;;;;;;5.03;2.22;;;21.40;34.90;;;;;;5155231;27;20188;-57
2024/02/25 01:09:56;;;;;;;4.25;1.70;;;21.40;35.00;;;;;;5155197;27;20207;-58
2024/02/25 01:12:23;;;;;;;5.25;2.30;;;21.40;34.90;;;;;;5154318;27;20743;-63
2024/02/25 01:14:51;;;;;;;4.22;2.03;;;21.40;34.90;;;;;;5154879;27;20668;-62
2024/02/25 01:17:18;;;;;;;4.32;1.88;;;21.40;34.80;;;;;;5155059;27;20198;-59
2024/02/25 01:19:45;;;;;;;4.55;2.28;;;21.40;34.80;;;;;;5154997;27;20306;-63
2024/02/25 01:22:11;;;;;;;3.70;2.42;;;21.40;34.80;;;;;;5154847;27;20302;-61
2024/02/25 01:24:38;;;;;;;4.35;1.90;;;21.40;34.80;;;;;;5154731;27;20307;-60
2024/02/25 01:27:05;;;;;;;5.57;2.22;;;21.40;34.80;;;;;;5154879;27;20205;-60
2024/02/25 01:29:32;;;;;;;4.47;1.98;;;21.40;34.80;;;;;;5154922;27;20214;-59
2024/02/25 01:32:00;;;;;;;4.57;2.20;;;21.40;34.70;;;;;;5154639;27;20211;-58
2024/02/25 01:34:28;;;;;;;4.07;1.55;;;21.40;34.70;;;;;;5154668;27;20304;-62
2024/02/25 01:36:55;;;;;;;2.88;2.10;;;21.40;34.70;;;;;;5154622;27;20199;-61
2024/02/25 01:39:22;;;;;;;4.00;2.20;;;21.50;34.70;;;;;;5154495;27;20233;-58
2024/02/25 01:41:50;;;;;;;2.85;1.90;;;21.50;34.70;;;;;;5154452;27;20212;-63
2024/02/25 01:44:18;;;;;;;3.95;1.83;;;21.50;34.70;;;;;;5154266;27;20253;-62
2024/02/25 01:46:45;;;;;;;4.38;1.98;;;21.50;34.70;;;;;;5154339;27;20190;-62
2024/02/25 01:49:14;;;;;;;3.50;1.90;;;21.50;34.60;;;;;;5154396;27;20215;-60
2024/02/25 01:51:42;;;;;;;3.50;2.15;;;21.50;34.70;;;;;;5154419;27;20283;-62
2024/02/25 01:54:10;;;;;;;4.85;2.22;;;21.40;34.60;;;;;;5154313;27;20544;-62
2024/02/25 01:56:37;;;;;;;6.93;2.00;;;21.40;34.60;;;;;;5154185;27;20278;-59
2024/02/25 01:59:05;;;;;;;2.63;1.58;;;21.40;34.60;;;;;;5154392;27;20318;-63
2024/02/25 02:01:35;;;;;;;3.30;1.90;;;21.40;34.70;;;;;;5153786;27;20214;-62
2024/02/25 02:04:02;;;;;;;4.50;1.75;;;21.40;34.60;;;;;;5154205;27;20216;-58
2024/02/25 02:06:31;;;;;;;3.08;1.60;;;21.40;34.60;;;;;;5154172;27;20318;-62
2024/02/25 02:08:59;;;;;;;4.45;2.03;;;21.40;34.70;;;;;;5153883;27;20245;-59
2024/02/25 02:11:27;;;;;;;3.10;2.03;;;21.40;34.60;;;;;;5154166;27;20192;-63
2024/02/25 02:13:55;;;;;;;3.42;1.85;;;21.40;34.70;;;;;;5153967;27;20600;-62
2024/02/25 02:16:24;;;;;;;2.97;1.80;;;21.40;34.60;;;;;;5154249;27;20202;-58
2024/02/25 02:18:51;;;;;;;3.13;1.63;;;21.40;34.60;;;;;;5153616;27;20196;-62
2024/02/25 02:21:23;;;;;;;3.70;1.70;;;21.40;34.70;;;;;;5152645;27;20314;-62
2024/02/25 02:23:53;;;;;;;2.80;1.67;;;21.30;34.60;;;;;;5153447;27;20191;-61
2024/02/25 02:26:20;;;;;;;5.93;2.03;;;21.40;34.70;;;;;;5153891;27;20188;-62
2024/02/25 02:28:47;;;;;;;3.28;1.70;;;21.40;34.70;;;;;;5153790;27;20272;-61
2024/02/25 02:31:13;;;;;;;4.20;1.98;;;21.40;34.70;;;;;;5153671;27;20191;-61
2024/02/25 02:33:40;;;;;;;6.22;1.95;;;21.40;35.30;;;;;;5154071;27;20212;-63
2024/02/25 02:36:07;;;;;;;3.38;1.60;;;21.40;34.60;;;;;;5153524;27;20649;-58
2024/02/25 02:38:35;;;;;;;3.45;1.98;;;21.40;34.70;;;;;;5153367;27;20529;-57
2024/02/25 02:41:02;;;;;;;3.70;1.80;;;21.40;34.70;;;;;;5154015;27;20222;-59
2024/02/25 02:43:29;;;;;;;3.67;1.92;;;21.30;34.50;;;;;;5153302;27;20302;-62
2024/02/25 02:45:56;;;;;;;5.53;2.10;;;21.40;34.60;;;;;;5153968;27;20213;-61
2024/02/25 02:48:23;;;;;;;4.18;1.60;;;21.40;34.70;;;;;;5153718;27;20180;-63
2024/02/25 02:50:50;;;;;;;7.18;1.70;;;21.40;34.70;;;;;;5153375;27;20218;-62
2024/02/25 02:53:17;;;;;;;2.80;1.55;;;21.40;34.60;;;;;;5153381;27;20623;-63
2024/02/25 02:55:45;;;;;;;3.33;1.60;;;21.30;34.60;;;;;;5153439;27;20302;-62
2024/02/25 02:58:12;;;;;;;5.88;2.30;;;21.30;34.60;;;;;;5153398;27;20184;-60
2024/02/25 03:00:38;;;;;;;3.65;1.70;;;21.40;34.70;;;;;;5153605;27;20211;-61
2024/02/25 03:03:05;;;;;;;3.50;2.00;;;21.40;34.70;;;;;;5153329;27;20220;-62
2024/02/25 03:05:32;;;;;;;4.07;1.70;;;21.40;34.70;;;;;;5153547;27;20298;-62
2024/02/25 03:07:59;;;;;;;4.38;1.60;;;21.40;34.70;;;;;;5153225;27;20743;-61
2024/02/25 03:10:26;;;;;;;3.80;1.95;;;21.40;34.70;;;;;;5153503;27;20222;-61
2024/02/25 03:12:54;;;;;;;2.60;1.50;;;21.40;34.60;;;;;;5153561;27;20206;-63
2024/02/25 03:15:21;;;;;;;4.90;1.90;;;21.40;34.70;;;;;;5153174;27;20607;-61
2024/02/25 03:17:48;;;;;;;4.15;1.80;;;21.40;34.60;;;;;;5152813;27;20199;-63
2024/02/25 03:20:16;;;;;;;4.40;1.88;;;21.40;34.60;;;;;;5153425;27;20211;-62
2024/02/25 03:22:43;;;;;;;5.10;1.70;;;21.50;34.70;;;;;;5153423;27;20216;-61
2024/02/25 03:25:12;;;;;;;3.53;1.90;;;21.40;34.60;;;;;;5152984;27;20601;-62
2024/02/25 03:27:39;;;;;;;6.30;2.00;;;21.40;34.60;;;;;;5153378;27;20188;-61
2024/02/25 03:30:10;;;;;;;6.05;1.65;;;21.40;34.70;;;;;;5153657;27;20211;-61
2024/02/25 03:32:36;;;;;;;4.30;1.70;;;21.40;34.70;;;;;;5153107;27;20276;-62
2024/02/25 03:35:03;;;;;;;4.82;1.80;;;21.40;34.70;;;;;;5155673;27;20211;-61
2024/02/25 03:37:30;;;;;;;5.03;1.70;;;21.40;34.70;;;;;;5156986;27;20271;-61
2024/02/25 03:39:57;;;;;;;4.43;2.00;;;21.40;35.50;;;;;;5156835;27;20229;-62
2024/02/25 03:42:24;;;;;;;3.42;1.70;;;21.40;34.80;;;;;;5156849;27;20250;-60
2024/02/25 03:44:51;;;;;;;4.22;1.85;;;21.40;34.80;;;;;;5156853;27;20302;-59
2024/02/25 03:47:19;;;;;;;5.30;1.60;;;21.40;34.80;;;;;;5156564;27;20271;-62
2024/02/25 03:49:46;;;;;;;3.28;1.80;;;21.40;34.90;;;;;;5156718;27;20215;-61
2024/02/25 03:52:13;;;;;;;3.75;1.65;;;21.40;34.90;;;;;;5156826;27;20188;-60
2024/02/25 03:54:40;;;;;;;3.97;1.58;;;21.40;34.90;;;;;;5156542;27;20306;-63
2024/02/25 03:57:07;;;;;;;4.63;1.52;;;21.40;34.90;;;;;;5156611;27;20194;-63
2024/02/25 03:59:34;;;;;;;4.80;1.90;;;21.40;34.90;;;;;;5156648;27;20215;-63
2024/02/25 04:02:01;;;;;;;3.80;1.90;;;21.30;34.90;;;;;;5156249;27;20183;-62
2024/02/25 04:04:29;;;;;;;4.15;1.60;;;21.40;35.00;;;;;;5156499;27;20302;-60
2024/02/25 04:06:56;;;;;;;2.75;1.60;;;21.40;35.00;;;;;;5156357;27;20275;-61
2024/02/25 04:09:23;;;;;;;4.90;1.50;;;21.30;34.90;;;;;;5156292;27;20302;-63
2024/02/25 04:11:50;;;;;;;5.38;1.70;;;21.30;35.00;;;;;;5156318;27;20187;-60
2024/02/25 04:14:17;;;;;;;4.55;1.88;;;21.30;35.00;;;;;;5155803;27;20734;-61
2024/02/25 04:16:44;;;;;;;5.22;1.63;;;21.30;35.00;;;;;;5156323;27;20199;-59
2024/02/25 04:19:11;;;;;;;3.38;1.60;;;21.40;35.10;;;;;;5156197;27;20215;-60
2024/02/25 04:21:39;;;;;;;3.33;1.40;;;21.30;35.00;;;;;;5156446;27;20215;-60
2024/02/25 04:24:06;;;;;;;5.60;2.22;;;21.30;35.00;;;;;;5155811;27;20219;-61
2024/02/25 04:26:33;;;;;;;3.83;1.60;;;21.30;35.00;;;;;;5156048;27;20194;-61
2024/02/25 04:29:00;;;;;;;5.00;1.70;;;21.30;35.00;;;;;;5155942;27;20279;-60
2024/02/25 04:31:27;;;;;;;4.28;1.90;;;21.30;35.00;;;;;;5155369;27;20653;-61
2024/02/25 04:33:54;;;;;;;5.00;1.55;;;21.30;35.10;;;;;;5155894;27;20191;-60
2024/02/25 04:36:20;;;;;;;3.78;1.42;;;21.30;35.00;;;;;;5155656;27;20700;-64
2024/02/25 04:38:49;;;;;;;4.35;1.55;;;21.40;35.20;;;;;;5155581;27;20195;-59
2024/02/25 04:41:15;;;;;;;4.60;1.60;;;21.40;35.10;;;;;;5156006;27;20226;-61
2024/02/25 04:43:42;;;;;;;4.95;1.60;;;21.40;35.10;;;;;;5155680;27;20212;-62
2024/02/25 04:46:09;;;;;;;3.78;1.60;;;21.40;35.10;;;;;;5154529;27;20214;-61
2024/02/25 04:48:38;;;;;;;4.43;1.85;;;21.40;35.10;;;;;;5155590;27;20188;-61
2024/02/25 04:51:05;;;;;;;3.25;1.75;;;21.40;35.10;;;;;;5155510;27;20218;-60
2024/02/25 04:53:32;;;;;;;5.25;2.25;;;21.40;35.10;;;;;;5155265;27;20274;-61
2024/02/25 04:56:01;;;;;;;3.28;1.33;;;21.40;35.10;;;;;;5155378;27;20751;-57
2024/02/25 04:58:27;;;;;;;5.25;1.77;;;21.40;35.10;;;;;;5155396;27;20184;-62
2024/02/25 05:00:54;;;;;;;3.58;1.50;;;21.40;35.10;;;;;;5155406;27;20207;-57
2024/02/25 05:03:21;;;;;;;5.13;1.80;;;21.40;35.10;;;;;;5155294;27;20215;-61
2024/02/25 05:05:48;;;;;;;3.88;1.60;;;21.40;35.10;;;;;;5155205;27;20211;-58
2024/02/25 05:08:15;;;;;;;2.92;1.45;;;21.40;35.10;;;;;;5154723;27;20553;-63
2024/02/25 05:10:42;;;;;;;4.10;1.80;;;21.40;35.10;;;;;;5155119;27;20217;-62
2024/02/25 05:13:10;;;;;;;4.50;1.70;;;21.40;35.10;;;;;;5154862;27;20183;-62
2024/02/25 05:15:38;;;;;;;4.95;2.00;;;21.40;35.80;;;;;;5155096;27;20212;-60
2024/02/25 05:18:06;;;;;;;4.13;2.00;;;21.30;35.10;;;;;;5154812;27;20188;-62
2024/02/25 05:20:32;;;;;;;4.78;2.40;;;21.40;35.20;;;;;;5154983;27;20243;-61
2024/02/25 05:22:59;;;;;;;5.85;2.00;;;21.30;35.10;;;;;;5154676;27;20755;-63
2024/02/25 05:25:27;;;;;;;3.92;1.70;;;21.30;35.20;;;;;;5154589;27;20302;-59
2024/02/25 05:27:53;;;;;;;2.92;1.50;;;21.30;35.20;;;;;;5154825;27;20619;-57
2024/02/25 05:30:22;;;;;;;3.70;1.85;;;21.30;35.20;;;;;;5154508;27;20260;-63
2024/02/25 05:32:48;;;;;;;3.67;1.88;;;21.30;35.20;;;;;;5154796;27;20183;-61
2024/02/25 05:35:15;;;;;;;4.63;1.70;;;21.30;35.20;;;;;;5154621;27;20268;-60
2024/02/25 05:37:42;;;;;;;4.10;1.70;;;21.30;35.20;;;;;;5154409;27;20206;-58
2024/02/25 05:40:11;;;;;;;4.13;2.20;;;21.30;35.20;;;;;;5154414;27;20632;-62
2024/02/25 05:42:38;;;;;;;4.65;1.90;;;21.30;35.20;;;;;;5154457;27;20212;-62
2024/02/25 05:45:06;;;;;;;3.90;1.55;;;21.30;35.20;;;;;;5154098;27;20306;-63
2024/02/25 05:47:34;;;;;;;3.83;1.85;;;21.30;35.20;;;;;;5154486;27;20274;-59
2024/02/25 05:50:01;;;;;;;4.88;2.08;;;21.30;35.20;;;;;;5154399;27;20298;-63
2024/02/25 05:52:28;;;;;;;3.92;1.65;;;21.30;35.20;;;;;;5154225;27;20214;-57
2024/02/25 05:54:56;;;;;;;5.15;1.55;;;21.30;35.20;;;;;;5154408;27;20211;-60
2024/02/25 05:57:23;;;;;;;3.97;2.00;;;21.30;35.20;;;;;;5154020;27;20187;-61
2024/02/25 05:59:49;;;;;;;3.88;1.65;;;21.30;35.20;;;;;;5153846;27;20569;-59
2024/02/25 06:02:16;;;;;;;5.82;1.83;;;21.30;35.20;;;;;;5154396;27;20198;-62
2024/02/25 06:04:44;;;;;;;4.70;2.00;;;21.30;35.20;;;;;;5154066;27;20229;-62
2024/02/25 06:07:11;;;;;;;5.15;1.95;;;21.30;35.20;;;;;;5153905;27;20188;-62
2024/02/25 06:09:38;;;;;;;5.45;1.98;;;21.30;35.20;;;;;;5153919;27;20208;-62
2024/02/25 06:12:05;;;;;;;3.75;1.90;;;21.30;35.20;;;;;;5154215;27;20187;-61
2024/02/25 06:14:32;;;;;;;5.25;1.60;;;21.30;35.20;;;;;;5153669;27;20235;-62
2024/02/25 06:16:59;;;;;;;5.53;1.67;;;21.30;35.20;;;;;;5153995;27;20275;-62
2024/02/25 06:19:26;;;;;;;4.22;1.75;;;21.30;35.10;;;;;;5153874;27;20208;-61
2024/02/25 06:21:54;;;;;;;5.43;2.00;;;21.40;35.20;;;;;;5153848;27;20266;-58
2024/02/25 06:24:21;;;;;;;4.65;2.05;;;21.40;35.20;;;;;;5153619;27;20700;-60
2024/02/25 06:26:48;;;;;;;3.97;1.45;;;21.40;35.20;;;;;;5153917;27;20188;-60
2024/02/25 06:29:16;;;;;;;2.60;1.40;;;21.40;35.20;;;;;;5153666;27;20286;-61
2024/02/25 06:31:44;;;;;;;3.70;1.60;;;21.40;35.10;;;;;;5153603;27;20184;-62
2024/02/25 06:34:11;;;;;;;4.25;1.55;;;21.40;35.10;;;;;;5153557;27;20659;-61
2024/02/25 06:36:38;;;;;;;4.38;1.60;;;21.30;35.00;;;;;;5153623;27;20202;-57
2024/02/25 06:39:08;;;;;;;4.53;2.10;;;21.40;35.10;;;;;;5153756;27;20282;-62
2024/02/25 06:41:35;;;;;;;3.53;1.60;;;21.40;35.10;;;;;;5153746;27;20191;-62
2024/02/25 06:44:02;;;;;;;5.53;1.75;;;21.40;35.10;;;;;;5153618;27;20211;-59
2024/02/25 06:46:29;;;;;;;3.95;1.70;;;21.30;35.10;;;;;;5153409;27;20642;-60
2024/02/25 06:48:56;;;;;;;3.35;1.48;;;21.30;35.10;;;;;;5153814;27;20194;-61
2024/02/25 06:51:23;;;;;;;3.97;1.70;;;21.30;35.80;;;;;;5153475;27;20239;-59
2024/02/25 06:53:50;;;;;;;4.55;1.40;;;21.30;35.10;;;;;;5153419;27;20634;-61
2024/02/25 06:56:19;;;;;;;4.40;1.58;;;21.30;35.90;;;;;;5153882;27;20306;-60
2024/02/25 06:58:46;;;;;;;4.50;1.80;;;21.30;35.10;;;;;;5153463;27;20180;-61
2024/02/25 07:01:13;;;;;;;5.32;2.00;;;21.30;35.10;;;;;;5153596;27;20570;-59
2024/02/25 07:03:43;;;;;;;4.15;1.70;;;21.30;35.10;;;;;;5153242;27;20212;-63
2024/02/25 07:06:10;;;;;;;5.55;1.75;;;21.30;35.20;;;;;;5153377;27;20229;-62
2024/02/25 07:08:38;;;;;;;3.78;1.55;;;21.30;35.10;;;;;;5153812;27;20184;-58
2024/02/25 07:11:14;;;;;;;5.47;1.80;;;21.30;35.20;;;;;;5157525;27;20218;-62
2024/02/25 07:13:42;;;;;;;3.65;1.80;;;21.30;35.20;;;;;;5156827;27;20712;-60
2024/02/25 07:16:09;;;;;;;4.28;1.75;;;21.30;35.20;;;;;;5157148;27;20306;-62
2024/02/25 07:18:36;;;;;;;4.60;1.73;;;21.30;35.20;;;;;;5157185;27;20191;-60
2024/02/25 07:21:03;;;;;;;2.70;1.73;;;21.30;35.20;;;;;;5157029;27;20230;-58
2024/02/25 07:23:30;;;;;;;4.78;1.90;;;21.30;35.20;;;;;;5156974;27;20302;-61
2024/02/25 07:25:57;;;;;;;5.78;1.63;;;21.30;35.20;;;;;;5157478;27;20215;-58
2024/02/25 07:28:24;;;;;;;2.90;1.63;;;21.30;35.90;;;;;;5156666;27;20179;-62
2024/02/25 07:30:52;;;;;;;3.97;1.50;;;21.30;35.20;;;;;;5157136;27;20593;-61
2024/02/25 07:33:19;;;;;;;5.25;1.80;;;21.20;35.10;;;;;;5156858;27;20191;-62
2024/02/25 07:35:47;;;;;;;2.97;1.52;;;21.30;35.80;;;;;;5156940;27;20310;-61
2024/02/25 07:38:14;;;;;;;3.65;1.65;;;21.30;35.20;;;;;;5157265;27;20217;-62
2024/02/25 07:40:41;;;;;;;3.67;1.55;;;21.30;35.10;;;;;;5156808;27;20207;-60
2024/02/25 07:43:08;;;;;;;4.47;1.75;;;21.30;35.10;;;;;;5156661;27;20191;-59
2024/02/25 07:45:35;;;;;;;3.50;1.58;;;21.30;35.20;;;;;;5156701;27;20213;-62
2024/02/25 07:48:04;;;;;;;4.82;1.80;;;21.30;35.20;;;;;;5156773;27;20278;-61
2024/02/25 07:50:31;;;;;;;4.82;1.80;;;21.30;35.10;;;;;;5156646;27;20358;-62
2024/02/25 07:52:58;;;;;;;3.17;1.63;;;21.30;35.20;;;;;;5156803;27;20282;-58
2024/02/25 07:55:25;;;;;;;4.35;1.60;;;21.30;35.20;;;;;;5156778;27;20294;-61
2024/02/25 07:57:52;;;;;;;4.65;1.70;;;21.40;35.20;;;;;;5156366;27;20184;-62
2024/02/25 08:00:19;;;;;;;2.72;1.20;;;21.30;35.20;;;;;;5156722;27;20645;-57
2024/02/25 08:02:46;;;;;;;4.70;1.63;;;21.30;35.10;;;;;;5156283;27;20274;-60
2024/02/25 08:05:14;;;;;;;3.88;1.58;;;21.40;35.20;;;;;;5156287;27;20235;-63
2024/02/25 08:07:44;;;;;;;5.20;1.45;;;21.40;35.10;;;;;;5156352;27;20190;-60
2024/02/25 08:10:11;;;;;;;4.72;1.65;;;21.30;35.10;;;;;;5156091;27;20215;-59
2024/02/25 08:12:39;;;;;;;4.47;1.50;;;21.40;35.20;;;;;;5155844;27;20740;-58
2024/02/25 08:15:07;;;;;;;5.72;1.90;;;21.40;35.20;;;;;;5155998;27;20594;-59
2024/02/25 08:17:36;;;;;;;2.80;1.48;;;21.30;35.10;;;;;;5156161;27;20278;-60
2024/02/25 08:20:03;;;;;;;5.10;1.77;;;21.40;35.20;;;;;;5155926;27;20247;-58
2024/02/25 08:22:32;;;;;;;8.88;1.70;;;21.30;35.10;;;;;;5156189;27;20188;-58
2024/02/25 08:24:59;;;;;;;4.55;1.98;;;21.30;35.10;;;;;;5156037;27;20241;-56
2024/02/25 08:27:29;;;;;;;3.83;1.60;;;21.30;35.20;;;;;;5155800;27;20560;-56
2024/02/25 08:29:55;;;;;;;3.80;1.70;;;21.30;35.20;;;;;;5155980;27;20360;-54
2024/02/25 08:32:22;;;;;;;3.92;1.48;;;21.30;35.20;;;;;;5156263;27;20278;-59
2024/02/25 08:34:53;;;;;;;2.90;1.25;;;21.30;35.20;;;;;;5155858;27;20299;-58
2024/02/25 08:37:21;;;;;;;6.03;1.60;;;21.30;35.20;;;;;;5155569;27;20644;-62
2024/02/25 08:39:49;;;;;;;2.88;1.35;;;21.30;35.20;;;;;;5155914;27;20585;-57
2024/02/25 08:42:16;;;;;;;5.55;1.60;;;21.30;35.30;;;;;;5155328;27;20725;-60
2024/02/25 08:44:43;;;;;;;4.72;2.05;;;21.30;35.20;;;;;;5155580;27;20227;-58
2024/02/25 08:47:10;;;;;;;2.72;1.25;;;21.30;35.30;;;;;;5155648;27;20183;-60
2024/02/25 08:49:37;;;;;;;3.72;1.63;;;21.30;35.30;;;;;;5155400;27;20302;-60
2024/02/25 08:52:04;;;;;;;3.67;1.60;;;21.30;35.30;;;;;;5155623;27;20191;-57
2024/02/25 08:54:31;;;;;;;3.95;1.75;;;21.30;35.30;;;;;;5155559;27;20271;-58
2024/02/25 08:56:59;;;;;;;4.45;1.58;;;21.30;35.30;;;;;;5154915;27;20219;-58
2024/02/25 08:59:26;;;;;;;4.22;1.83;;;21.30;35.40;;;;;;5155447;27;20202;-59
2024/02/25 09:01:54;;;;;;;4.22;1.50;;;21.30;35.40;;;;;;5155429;27;20275;-60
2024/02/25 09:04:24;;;;;;;3.38;1.48;;;21.30;35.40;;;;;;5154681;27;20711;-59
2024/02/25 09:06:51;;;;;;;3.35;1.50;;;21.30;35.50;;;;;;5155387;27;20287;-59
2024/02/25 09:09:18;;;;;;;3.05;1.33;;;21.20;35.30;;;;;;5155131;27;20736;-54
2024/02/25 09:11:45;;;;;;;5.28;1.75;;;21.30;35.50;;;;;;5154983;27;20194;-59
2024/02/25 09:14:13;;;;;;;3.53;1.65;;;21.30;35.50;;;;;;5154674;27;20811;-56
2024/02/25 09:16:40;;;;;;;3.17;1.48;;;21.30;35.50;;;;;;5154935;27;20246;-58
2024/02/25 09:19:06;;;;;;;5.68;1.60;;;21.30;35.50;;;;;;5154819;27;20183;-56
2024/02/25 09:21:33;;;;;;;3.63;1.90;;;21.30;35.50;;;;;;5155174;27;20238;-58
2024/02/25 09:24:01;;;;;;;3.55;1.38;;;21.30;35.50;;;;;;5154821;27;20763;-59
2024/02/25 09:26:28;;;;;;;3.42;1.52;;;21.30;35.50;;;;;;5154801;27;20260;-59
2024/02/25 09:28:55;;;;;;;2.25;1.27;;;21.30;35.50;;;;;;5154491;27;20279;-60
2024/02/25 09:31:23;;;;;;;3.88;1.55;;;21.30;35.50;;;;;;5154221;27;20207;-59
2024/02/25 09:33:51;;;;;;;3.28;1.40;;;21.30;35.50;;;;;;5154479;27;20192;-59
2024/02/25 09:36:23;;;;;;;4.20;1.60;;;21.30;35.50;;;;;;5154499;27;20239;-57
2024/02/25 09:38:50;;;;;;;1.95;1.45;;;21.40;35.60;;;;;;5154353;27;20183;-57
2024/02/25 09:41:22;;;;;;;3.53;1.60;;;21.40;35.60;;;;;;5154643;27;20211;-57
2024/02/25 09:43:52;;;;;;;5.13;1.63;;;21.40;35.60;;;;;;5154168;27;20194;-57
2024/02/25 09:46:20;;;;;;;3.03;1.45;;;21.40;36.20;;;;;;5154227;27;20302;-59
2024/02/25 09:48:51;;;;;;;2.25;1.30;;;21.40;35.60;;;;;;5154320;27;20274;-57
2024/02/25 09:51:20;;;;;;;3.38;1.48;;;21.40;35.60;;;;;;5154577;27;20211;-57
2024/02/25 09:53:49;;;;;;;4.75;1.40;;;21.40;35.60;;;;;;5154488;27;20559;-56
2024/02/25 09:56:16;;;;;;;2.90;1.30;;;21.40;35.60;;;;;;5154228;27;20216;-58
2024/02/25 09:58:44;;;;;;;3.80;1.77;;;21.40;35.70;;;;;;5153981;27;20664;-57
2024/02/25 10:01:10;;;;;;;4.28;1.52;;;21.40;35.70;;;;;;5154435;27;20211;-60
2024/02/25 10:03:39;;;;;;;3.45;1.67;;;21.40;35.70;;;;;;5153728;27;20188;-56
2024/02/25 10:06:07;;;;;;;1.75;1.10;;;21.30;35.70;;;;;;5154176;27;20226;-60
2024/02/25 10:08:45;;;;;;;2.72;1.20;;;21.30;35.70;;;;;;5154222;27;20275;-58
2024/02/25 10:11:12;;;;;;;2.22;1.23;;;21.40;35.90;;;;;;5153998;27;20220;-60
2024/02/25 10:13:41;;;;;;;1.40;1.10;;;21.40;35.80;;;;;;5153862;27;20231;-59
2024/02/25 10:16:15;;;;;;;2.38;1.30;;;21.40;35.90;;;;;;5154270;27;20306;-57
2024/02/25 10:18:42;;;;;;;4.30;1.45;;;21.40;35.90;;;;;;5153827;27;20186;-56
2024/02/25 10:21:11;;;;;;;3.00;1.40;;;21.30;35.80;;;;;;5153143;27;20220;-57
2024/02/25 10:23:38;;;;;;;1.83;1.17;;;21.30;35.80;;;;;;5153652;27;20228;-60
2024/02/25 10:26:13;;;;;;;1.88;1.02;;;21.30;36.50;;;;;;5153231;27;20318;-52
2024/02/25 10:28:41;;;;;;;2.47;1.38;;;21.40;36.00;;;;;;5153940;27;20303;-58
2024/02/25 10:31:10;;;;;;;2.72;1.30;;;21.40;36.00;;;;;;5153914;27;20498;-60
2024/02/25 10:33:37;;;;;;;2.50;0.85;;;21.40;36.00;;;;;;5152959;27;20553;-57
2024/02/25 10:36:08;;;;;;;3.42;1.25;;;21.40;36.00;;;;;;5153772;27;20306;-56
2024/02/25 10:38:39;;;;;;;2.60;1.35;;;21.40;36.00;;;;;;5153903;27;20192;-57
2024/02/25 10:41:07;;;;;;;3.72;1.10;;;21.40;36.70;;;;;;5153522;27;20218;-56
2024/02/25 10:43:35;;;;;;;2.17;1.17;;;21.30;36.00;;;;;;5155430;27;20179;-54
2024/02/25 10:46:07;;;;;;;2.97;1.20;;;21.30;36.00;;;;;;5157737;27;20231;-59
2024/02/25 10:48:36;;;;;;;3.50;1.10;;;21.30;36.10;;;;;;5157880;27;20188;-60
2024/02/25 10:51:03;;;;;;;1.98;1.10;;;21.40;36.20;;;;;;5157721;27;20791;-54
2024/02/25 10:53:33;;;;;;;2.38;1.20;;;21.30;36.10;;;;;;5157876;27;20183;-58
2024/02/25 10:56:01;;;;;;;2.67;1.15;;;21.40;36.30;;;;;;5157435;27;20310;-57
2024/02/25 10:58:30;;;;;;;2.25;1.15;;;21.40;36.30;;;;;;5157497;27;20641;-54
2024/02/25 11:00:57;;;;;;;2.38;1.00;;;21.30;36.20;;;;;;5157932;27;20302;-57
2024/02/25 11:03:25;;;;;;;1.65;0.93;;;21.40;36.30;;;;;;5157481;27;20187;-58
2024/02/25 11:05:54;;;;;;;2.70;1.05;;;21.40;36.30;;;;;;5157220;27;20237;-54
2024/02/25 11:08:28;;;;;;;1.73;1.00;;;21.40;36.30;;;;;;5157622;27;20180;-57
2024/02/25 11:10:59;;;;;;;2.53;1.27;;;21.40;36.30;;;;;;5157465;27;20578;-56
2024/02/25 11:13:27;;;;;;;2.50;1.00;;;21.40;36.30;;;;;;5157090;27;20700;-56
2024/02/25 11:15:55;;;;;;;1.23;0.95;;;21.40;36.30;;;;;;5157554;27;20226;-56
2024/02/25 11:18:27;;;;;;;2.33;1.20;;;21.40;36.30;;;;;;5157376;27;20202;-56
2024/02/25 11:21:08;;;;;;;2.53;1.08;;;21.40;36.30;;;;;;5157453;27;20214;-60
2024/02/25 11:23:42;;;;;;;1.73;1.00;;;21.40;36.40;;;;;;5157408;27;20274;-58
2024/02/25 11:26:41;;;;;;;1.70;1.00;;;21.50;36.50;;;;;;5157029;27;20233;-56
2024/02/25 11:29:17;;;;;;;2.10;0.98;;;21.50;36.50;;;;;;5157263;27;20188;-58
2024/02/25 11:31:51;;;;;;;1.33;0.80;;;21.40;36.40;;;;;;5157204;27;20326;-60
2024/02/25 11:34:20;;;;;;;1.35;0.80;;;21.40;36.50;;;;;;5157188;27;20190;-58
2024/02/25 11:36:52;;;;;;;2.95;1.10;;;21.40;37.10;;;;;;5157321;27;20219;-59
2024/02/25 11:39:21;;;;;;;1.35;0.90;;;21.40;36.50;;;;;;5156845;27;20191;-59
2024/02/25 11:41:49;;;;;;;1.90;1.00;;;21.40;36.50;;;;;;5156857;27;20227;-60
2024/02/25 11:44:18;;;;;;;2.35;0.90;;;21.40;36.60;;;;;;5156654;27;20716;-59
2024/02/25 11:46:44;;;;;;;1.70;0.80;;;21.40;36.60;;;;;;5156854;27;20234;-61
2024/02/25 11:49:13;;;;;;;1.30;0.75;;;21.40;37.30;;;;;;5156900;27;20183;-57
2024/02/25 11:51:43;;;;;;;1.23;0.90;;;21.40;36.80;;;;;;5156933;27;20302;-57
2024/02/25 11:54:11;;;;;;;1.20;0.80;;;21.40;36.60;;;;;;5156439;27;20290;-60
2024/02/25 11:56:38;;;;;;;3.10;1.17;;;21.40;36.60;;;;;;5156279;27;20309;-60
2024/02/25 11:59:05;;;;;;;1.10;0.80;;;21.40;36.60;;;;;;5156455;27;20279;-55
2024/02/25 12:01:34;;;;;;;1.33;0.70;;;21.40;36.70;;;;;;5156287;27;20381;-58
2024/02/25 12:04:01;;;;;;;1.63;0.80;;;21.40;36.70;;;;;;5156315;27;20220;-54
2024/02/25 12:06:32;;;;;;;1.58;0.90;;;21.40;36.70;;;;;;5156385;27;20237;-57
2024/02/25 12:08:59;;;;;;;2.22;1.00;;;21.40;36.80;;;;;;5156338;27;20266;-60
2024/02/25 12:11:26;;;;;;;0.90;0.73;;;21.40;36.80;;;;;;5156272;27;20251;-58
2024/02/25 12:14:01;;;;;;;1.95;0.93;;;21.40;36.80;;;;;;5155925;27;20314;-58
2024/02/25 12:16:29;;;;;;;2.33;0.93;;;21.40;36.90;;;;;;5155972;27;20726;-58
2024/02/25 12:18:58;;;;;;;1.65;0.82;;;21.40;36.90;;;;;;5156311;27;20546;-60
2024/02/25 12:21:26;;;;;;;1.48;0.90;;;21.40;36.90;;;;;;5156413;27;20306;-58
2024/02/25 12:23:56;;;;;;;2.30;1.00;;;21.40;36.90;;;;;;5155699;27;20274;-57
2024/02/25 12:26:23;;;;;;;1.45;0.75;;;21.40;36.90;;;;;;5156253;27;20227;-58
2024/02/25 12:28:50;;;;;;;1.15;1.00;;;21.40;37.00;;;;;;5156388;27;20192;-56
2024/02/25 12:31:17;;;;;;;1.58;0.93;;;21.40;37.00;;;;;;5155982;27;20211;-59
2024/02/25 12:33:47;;;;;;;1.10;0.70;;;21.40;37.70;;;;;;5156290;27;20274;-56
2024/02/25 12:36:16;;;;;;;1.10;0.80;;;21.40;37.00;;;;;;5155727;27;20688;-58
2024/02/25 12:38:49;;;;;;;2.55;0.82;;;21.40;37.00;;;;;;5155746;27;20184;-59
2024/02/25 12:41:17;;;;;;;1.45;0.82;;;21.40;37.10;;;;;;5156037;27;20211;-60
2024/02/25 12:43:45;;;;;;;0.70;0.60;;;21.40;37.10;;;;;;5156100;27;20279;-61
2024/02/25 12:46:13;;;;;;;1.38;0.93;;;21.40;37.10;;;;;;5155517;27;20592;-61
2024/02/25 12:48:40;;;;;;;1.45;0.73;;;21.40;37.10;;;;;;5155381;27;20552;-60
2024/02/25 12:51:07;;;;;;;1.02;0.70;;;21.40;37.10;;;;;;5155382;27;20212;-61